Time;durP1;ratioP1;P1;durP2;ratioP2;P2;SDS_P1;SDS_P2;PMS_P1;PMS_P2;Temp;Humidity;BMP_temperature;BMP_pressure;BME280_temperature;BME280_humidity;BME280_pressure;Samples;Min_cycle;Max_cycle;Signal;HPM_P1;HPM_P2
2022/11/02 00:00:39;;;;;;;55.70;34.72;;;15.10;6.00;;;;;;5049480;28;20036;-60
2022/11/02 00:03:05;;;;;;;39.35;29.98;;;15.10;5.70;;;;;;5047768;28;20568;-60
2022/11/02 00:05:31;;;;;;;40.28;28.83;;;15.10;5.50;;;;;;5054706;28;20113;-59
2022/11/02 00:07:57;;;;;;;41.08;29.30;;;15.20;5.50;;;;;;5053917;28;20087;-60
2022/11/02 00:10:23;;;;;;;46.53;31.40;;;15.10;5.60;;;;;;5052529;28;20064;-60
2022/11/02 00:12:50;;;;;;;41.35;29.90;;;15.10;5.70;;;;;;5056903;28;20029;-60
2022/11/02 00:15:16;;;;;;;43.92;30.55;;;15.10;5.20;;;;;;5052582;28;20037;-60
2022/11/02 00:17:46;;;;;;;40.47;28.55;;;15.10;5.80;;;;;;5046805;28;20120;-60
2022/11/02 00:20:14;;;;;;;38.92;29.65;;;15.10;5.60;;;;;;5052651;28;20028;-60
2022/11/02 00:22:41;;;;;;;40.70;29.80;;;15.10;5.50;;;;;;5053860;28;20029;-60
2022/11/02 00:25:11;;;;;;;38.13;28.17;;;15.10;5.30;;;;;;5049094;28;20364;-60
2022/11/02 00:27:38;;;;;;;42.42;27.35;;;15.10;5.50;;;;;;5054391;28;20057;-60
2022/11/02 00:30:04;;;;;;;50.65;32.33;;;15.10;5.00;;;;;;5051212;28;20044;-60
2022/11/02 00:32:30;;;;;;;42.95;29.13;;;15.20;4.80;;;;;;5049213;28;20078;-60
2022/11/02 00:34:56;;;;;;;51.25;31.30;;;15.30;4.50;;;;;;5052802;28;20405;-60
2022/11/02 00:37:21;;;;;;;55.25;32.17;;;15.30;4.80;;;;;;5048223;28;20938;-60
2022/11/02 00:39:47;;;;;;;54.10;33.78;;;15.30;4.50;;;;;;5056079;28;20060;-60
2022/11/02 00:42:12;;;;;;;60.67;33.97;;;15.30;3.90;;;;;;5050855;28;20025;-60
2022/11/02 00:44:38;;;;;;;51.88;32.53;;;15.40;4.00;;;;;;5049762;28;20446;-60
2022/11/02 00:47:04;;;;;;;51.75;32.85;;;15.30;4.30;;;;;;5053844;28;20029;-60
2022/11/02 00:49:29;;;;;;;59.38;36.05;;;15.30;4.50;;;;;;5054807;28;20045;-61
2022/11/02 00:51:55;;;;;;;61.30;34.95;;;15.40;4.10;;;;;;5050015;28;20032;-61
2022/11/02 00:54:21;;;;;;;59.35;32.53;;;15.20;4.60;;;;;;5051457;28;20037;-62
2022/11/02 00:56:46;;;;;;;61.15;34.63;;;15.30;4.50;;;;;;5053536;28;20502;-61
2022/11/02 00:59:12;;;;;;;59.58;33.78;;;15.20;5.20;;;;;;5053238;28;20032;-61
2022/11/02 01:01:37;;;;;;;57.65;33.08;;;15.20;5.00;;;;;;5052352;28;20117;-61
2022/11/02 01:04:03;;;;;;;56.75;32.72;;;15.20;4.50;;;;;;5053199;28;20506;-61
2022/11/02 01:06:29;;;;;;;57.65;31.60;;;15.00;5.30;;;;;;5050258;28;20529;-61
2022/11/02 01:08:54;;;;;;;58.70;32.97;;;15.20;4.70;;;;;;5048403;28;20101;-61
2022/11/02 01:11:22;;;;;;;59.45;32.58;;;15.10;4.40;;;;;;5050784;28;20055;-61
2022/11/02 01:13:51;;;;;;;82.88;36.00;;;15.20;3.50;;;;;;5048392;28;20486;-61
2022/11/02 01:16:16;;;;;;;60.85;32.70;;;15.00;5.40;;;;;;5046684;28;20044;-62
2022/11/02 01:18:42;;;;;;;77.55;36.53;;;15.20;4.70;;;;;;5051052;28;20071;-61
2022/11/02 01:21:09;;;;;;;60.53;33.40;;;15.10;4.60;;;;;;5051915;28;20097;-61
2022/11/02 01:23:36;;;;;;;67.60;32.42;;;15.10;4.90;;;;;;5055883;28;20044;-61
2022/11/02 01:26:03;;;;;;;70.88;36.70;;;15.20;3.90;;;;;;5066675;28;20025;-61
2022/11/02 01:28:29;;;;;;;77.28;35.00;;;15.20;3.90;;;;;;5051094;28;20055;-61
2022/11/02 01:30:55;;;;;;;68.65;32.33;;;15.20;3.40;;;;;;5052033;28;20033;-61
2022/11/02 01:33:20;;;;;;;63.60;32.97;;;15.00;4.60;;;;;;5054036;28;20021;-61
2022/11/02 01:35:46;;;;;;;70.50;34.17;;;15.10;4.10;;;;;;5053348;28;20021;-61
2022/11/02 01:38:12;;;;;;;56.42;29.67;;;15.20;3.90;;;;;;5051030;28;20028;-61
2022/11/02 01:40:39;;;;;;;68.50;33.65;;;15.10;3.90;;;;;;5054475;28;20070;-61
2022/11/02 01:46:40;;;;;;;56.40;29.63;;;15.20;3.00;;;;;;5049057;28;20028;-61
2022/11/02 01:49:17;;;;;;;54.95;28.42;;;15.20;3.20;;;;;;5048950;28;20048;-61
2022/11/02 01:51:49;;;;;;;52.05;28.77;;;15.10;2.20;;;;;;5047941;28;20029;-61
2022/11/02 01:54:22;;;;;;;48.88;25.75;;;15.10;3.00;;;;;;5050967;28;20108;-61
2022/11/02 01:56:56;;;;;;;47.40;27.52;;;15.00;3.10;;;;;;5048898;28;20405;-61
2022/11/02 01:59:46;;;;;;;47.40;26.38;;;15.20;2.70;;;;;;5048988;28;20044;-61
2022/11/02 02:02:20;;;;;;;43.38;26.02;;;15.20;2.50;;;;;;5049071;28;20108;-61
2022/11/02 02:04:51;;;;;;;44.30;24.10;;;15.20;2.00;;;;;;5052832;28;20359;-61
2022/11/02 02:07:17;;;;;;;53.15;26.95;;;15.10;1.70;;;;;;5052119;28;20039;-61
2022/11/02 02:09:43;;;;;;;48.65;25.08;;;15.10;2.10;;;;;;5049465;28;20063;-61
2022/11/02 02:12:11;;;;;;;47.58;24.58;;;15.00;2.70;;;;;;5047101;28;20494;-61
2022/11/02 02:14:37;;;;;;;49.78;25.63;;;15.10;2.00;;;;;;5051876;28;20471;-61
2022/11/02 02:17:27;;;;;;;45.38;25.30;;;15.10;2.10;;;;;;5048754;28;20037;-61
2022/11/02 02:20:23;;;;;;;50.90;25.23;;;15.00;1.60;;;;;;5047970;28;20036;-61
2022/11/02 02:23:13;;;;;;;42.72;24.35;;;15.10;1.70;;;;;;5041397;28;20052;-61
2022/11/02 02:25:53;;;;;;;36.78;22.73;;;15.10;1.20;;;;;;5045139;28;20122;-61
2022/11/02 02:28:19;;;;;;;36.25;21.75;;;15.10;1.00;;;;;;5050662;28;20076;-59
2022/11/02 02:31:13;;;;;;;39.75;23.58;;;15.10;1.00;;;;;;5050433;28;20080;-60
2022/11/02 02:33:45;;;;;;;38.15;23.15;;;15.10;1.00;;;;;;5050103;28;20031;-59
2022/11/02 02:36:43;;;;;;;34.13;20.13;;;15.10;1.00;;;;;;5049186;28;20025;-59
2022/11/02 02:39:17;;;;;;;30.83;20.48;;;15.10;1.00;;;;;;5015550;28;20403;-59
2022/11/02 02:41:51;;;;;;;31.98;20.90;;;15.10;1.00;;;;;;5065451;28;20379;-60
2022/11/02 02:44:23;;;;;;;33.95;20.45;;;15.00;1.00;;;;;;5051484;28;20029;-59
2022/11/02 02:47:03;;;;;;;30.08;20.73;;;14.90;1.00;;;;;;5042461;28;20021;-60
2022/11/02 02:49:42;;;;;;;35.92;23.42;;;15.00;1.00;;;;;;5052245;28;20059;-60
2022/11/02 02:52:09;;;;;;;30.63;20.95;;;15.00;1.00;;;;;;5046954;28;20036;-60
2022/11/02 02:54:40;;;;;;;33.10;22.17;;;15.10;1.00;;;;;;5048705;28;20029;-59
2022/11/02 02:57:12;;;;;;;28.13;19.95;;;14.90;1.00;;;;;;5049325;28;20075;-60
2022/11/02 02:59:49;;;;;;;29.48;20.33;;;14.70;1.00;;;;;;5047784;28;20029;-59
2022/11/02 03:02:17;;;;;;;28.00;18.75;;;14.70;1.00;;;;;;5050122;28;20556;-59
2022/11/02 03:04:43;;;;;;;28.55;19.65;;;14.70;1.00;;;;;;5046915;28;20030;-60
2022/11/02 03:07:12;;;;;;;30.30;19.85;;;14.60;1.00;;;;;;5053926;28;20035;-59
2022/11/02 03:10:04;;;;;;;27.95;19.70;;;14.70;1.00;;;;;;5050408;28;20037;-59
2022/11/02 03:12:51;;;;;;;29.65;20.75;;;14.80;1.00;;;;;;5033794;28;20120;-60
2022/11/02 03:15:33;;;;;;;30.23;20.98;;;14.90;1.00;;;;;;5049911;28;20025;-60
2022/11/02 03:18:17;;;;;;;26.80;18.33;;;14.90;1.00;;;;;;5043909;28;20170;-59
2022/11/02 03:20:42;;;;;;;28.08;20.27;;;14.90;1.00;;;;;;5048054;28;20018;-60
2022/11/02 03:23:46;;;;;;;29.27;21.20;;;14.90;1.00;;;;;;5046998;28;20142;-59
2022/11/02 03:26:16;;;;;;;32.75;21.60;;;14.90;1.00;;;;;;5027268;28;20041;-59
2022/11/02 03:29:03;;;;;;;25.98;17.75;;;14.90;1.00;;;;;;5026513;28;20041;-59
2022/11/02 03:31:38;;;;;;;29.88;20.70;;;14.90;1.00;;;;;;5043629;28;20405;-59
2022/11/02 03:34:11;;;;;;;30.88;20.95;;;14.90;1.00;;;;;;5050292;28;20067;-59
2022/11/02 03:36:44;;;;;;;26.27;18.70;;;14.90;1.00;;;;;;5052635;28;20039;-59
2022/11/02 03:39:12;;;;;;;32.88;21.48;;;14.90;1.00;;;;;;5055502;28;20474;-60
2022/11/02 03:41:40;;;;;;;28.67;20.15;;;14.80;1.00;;;;;;5055629;28;20063;-59
2022/11/02 03:44:10;;;;;;;31.88;21.40;;;14.90;1.00;;;;;;5055034;28;20104;-59
2022/11/02 03:46:38;;;;;;;30.73;20.50;;;14.90;1.00;;;;;;5053065;28;20033;-59
2022/11/02 03:49:06;;;;;;;31.42;19.98;;;14.90;1.00;;;;;;5051909;28;20028;-59
2022/11/02 03:51:37;;;;;;;28.60;18.17;;;14.90;1.00;;;;;;5052838;28;20037;-59
2022/11/02 03:54:27;;;;;;;28.95;20.05;;;14.90;1.00;;;;;;5053528;28;20025;-60
2022/11/02 03:56:58;;;;;;;31.17;19.85;;;14.90;1.00;;;;;;5053205;28;20075;-59
2022/11/02 03:59:24;;;;;;;33.55;20.58;;;14.90;1.00;;;;;;5059378;28;20025;-59
2022/11/02 04:01:50;;;;;;;28.40;19.13;;;15.00;1.00;;;;;;5053386;28;20060;-60
2022/11/02 04:04:17;;;;;;;27.08;18.45;;;15.00;1.00;;;;;;5057806;28;20386;-60
2022/11/02 04:06:45;;;;;;;26.95;19.60;;;14.80;1.00;;;;;;5053233;28;20021;-59
2022/11/02 04:09:11;;;;;;;32.15;19.65;;;14.90;1.00;;;;;;5056478;28;20398;-59
2022/11/02 04:14:39;;;;;;;29.83;20.50;;;15.00;1.00;;;;;;5051050;28;20044;-59
2022/11/02 04:19:54;;;;;;;30.63;19.73;;;15.00;1.00;;;;;;5056684;28;20090;-59
2022/11/02 04:25:18;;;;;;;29.92;21.17;;;14.90;1.00;;;;;;5051452;28;20505;-59
2022/11/02 04:27:50;;;;;;;30.05;20.65;;;15.00;1.00;;;;;;5057653;28;20690;-59
2022/11/02 04:30:19;;;;;;;29.77;19.83;;;15.00;1.00;;;;;;5052156;28;20514;-59
2022/11/02 04:35:32;;;;;;;28.42;20.15;;;14.90;1.00;;;;;;5056130;28;20055;-60
2022/11/02 04:40:43;;;;;;;29.73;19.95;;;15.00;1.00;;;;;;5054268;28;20055;-59
2022/11/02 04:43:09;;;;;;;31.17;21.17;;;15.00;1.00;;;;;;5056015;28;20455;-60
2022/11/02 04:45:34;;;;;;;34.95;22.15;;;15.00;1.00;;;;;;5054469;28;20445;-59
2022/11/02 04:48:02;;;;;;;33.15;21.45;;;14.80;1.00;;;;;;5048257;28;20029;-59
2022/11/02 04:50:29;;;;;;;36.72;23.80;;;15.00;1.00;;;;;;5050508;28;20041;-59
2022/11/02 04:52:58;;;;;;;35.92;24.50;;;14.90;1.00;;;;;;5050608;28;20082;-59
2022/11/02 04:55:25;;;;;;;35.88;25.08;;;14.90;1.00;;;;;;5052730;28;20118;-60
2022/11/02 04:57:51;;;;;;;41.38;24.27;;;14.90;1.00;;;;;;5047571;28;20105;-59
2022/11/02 05:00:17;;;;;;;36.85;24.25;;;14.90;1.00;;;;;;5052610;28;20119;-60
2022/11/02 05:02:46;;;;;;;37.03;23.08;;;14.90;1.00;;;;;;5054854;28;20021;-60
2022/11/02 05:05:12;;;;;;;38.58;24.13;;;14.90;1.00;;;;;;5052439;28;20025;-60
2022/11/02 05:07:38;;;;;;;36.25;22.55;;;14.90;1.00;;;;;;5047785;28;20116;-60
2022/11/02 05:10:04;;;;;;;37.28;23.73;;;15.00;1.00;;;;;;5053605;28;20073;-60
2022/11/02 05:12:29;;;;;;;39.40;24.00;;;14.80;1.00;;;;;;5050960;28;20108;-61
2022/11/02 05:14:55;;;;;;;37.92;23.77;;;14.80;1.00;;;;;;5050472;28;20120;-60
2022/11/02 05:17:21;;;;;;;33.50;23.23;;;14.90;1.00;;;;;;5058043;28;20064;-60
2022/11/02 05:19:46;;;;;;;35.53;23.83;;;15.00;1.00;;;;;;5054225;28;20040;-60
2022/11/02 05:22:12;;;;;;;41.97;26.77;;;14.90;1.00;;;;;;5046351;28;20025;-60
2022/11/02 05:24:38;;;;;;;42.80;25.58;;;15.00;1.00;;;;;;5049633;28;20119;-61
2022/11/02 05:27:03;;;;;;;38.78;24.30;;;15.00;1.00;;;;;;5053665;28;20037;-60
2022/11/02 05:29:29;;;;;;;42.45;26.60;;;14.70;1.00;;;;;;5051403;28;20039;-60
2022/11/02 05:31:56;;;;;;;47.95;27.48;;;14.80;1.00;;;;;;5052853;28;20032;-60
2022/11/02 05:34:21;;;;;;;44.72;27.30;;;14.90;1.00;;;;;;5048069;28;20439;-60
2022/11/02 05:36:47;;;;;;;49.25;29.25;;;14.90;1.00;;;;;;5048539;28;20179;-60
2022/11/02 05:39:13;;;;;;;40.85;25.98;;;14.60;1.00;;;;;;5050020;28;20032;-60
2022/11/02 05:41:39;;;;;;;48.17;28.88;;;14.60;1.00;;;;;;5050755;28;20021;-60
2022/11/02 05:44:04;;;;;;;48.70;28.17;;;14.70;1.00;;;;;;5051255;28;20385;-60
2022/11/02 05:46:30;;;;;;;54.10;29.73;;;14.80;1.00;;;;;;5052966;28;20445;-60
2022/11/02 05:48:56;;;;;;;61.72;32.35;;;14.90;1.00;;;;;;5050950;28;20028;-59
2022/11/02 05:51:21;;;;;;;59.30;33.38;;;14.90;1.00;;;;;;5050643;28;20037;-60
2022/11/02 05:53:47;;;;;;;60.55;33.10;;;14.90;1.00;;;;;;5053572;28;20021;-60
2022/11/02 05:56:13;;;;;;;56.50;32.85;;;14.90;1.00;;;;;;5042910;28;20099;-59
2022/11/02 05:58:39;;;;;;;60.08;33.55;;;14.90;1.00;;;;;;5048220;28;20033;-59
2022/11/02 06:01:07;;;;;;;72.03;36.67;;;14.90;1.00;;;;;;5049346;28;20112;-59
2022/11/02 06:03:33;;;;;;;71.60;38.47;;;14.90;1.00;;;;;;5051414;28;20037;-59
2022/11/02 06:06:01;;;;;;;72.53;37.80;;;14.90;1.00;;;;;;5049468;28;20064;-60
2022/11/02 06:08:29;;;;;;;66.97;38.28;;;14.90;1.00;;;;;;5063826;28;20021;-60
2022/11/02 06:10:55;;;;;;;76.57;39.30;;;14.80;1.00;;;;;;5048690;28;20430;-59
2022/11/02 06:13:21;;;;;;;76.72;41.05;;;14.90;1.00;;;;;;5046058;28;20108;-60
2022/11/02 06:15:46;;;;;;;72.53;40.38;;;14.70;1.00;;;;;;5046869;28;20082;-60
2022/11/02 06:18:12;;;;;;;81.88;40.22;;;14.80;1.00;;;;;;5047723;28;20048;-60
2022/11/02 06:20:38;;;;;;;71.68;38.72;;;14.80;1.00;;;;;;5050854;28;20017;-60
2022/11/02 06:23:04;;;;;;;72.72;37.15;;;14.80;1.00;;;;;;5043967;28;20446;-60
2022/11/02 06:25:30;;;;;;;76.15;40.38;;;14.80;1.00;;;;;;5037324;28;20123;-60
2022/11/02 06:27:56;;;;;;;71.07;38.50;;;14.90;1.00;;;;;;5051631;28;20074;-60
2022/11/02 06:30:23;;;;;;;82.10;41.60;;;14.90;1.00;;;;;;5048056;28;20047;-59
2022/11/02 06:32:51;;;;;;;77.82;40.20;;;14.90;1.00;;;;;;5045124;28;20029;-59
2022/11/02 06:35:19;;;;;;;78.78;40.63;;;14.80;1.00;;;;;;5050968;28;20115;-58
2022/11/02 06:37:45;;;;;;;75.53;38.72;;;14.50;1.00;;;;;;5046528;28;20022;-58
2022/11/02 06:40:12;;;;;;;80.78;41.13;;;14.70;1.00;;;;;;5046019;28;20479;-59
2022/11/02 06:42:39;;;;;;;76.72;40.65;;;14.80;1.00;;;;;;5048500;28;20107;-59
2022/11/02 06:45:06;;;;;;;80.70;42.33;;;14.70;1.00;;;;;;5054102;28;20032;-57
2022/11/02 06:47:33;;;;;;;87.28;44.80;;;14.60;1.00;;;;;;5048381;28;20021;-56
2022/11/02 06:49:59;;;;;;;87.95;43.97;;;14.60;1.00;;;;;;5050035;28;20041;-58
2022/11/02 06:52:28;;;;;;;99.28;47.45;;;14.60;1.00;;;;;;5051499;28;20021;-58
2022/11/02 06:54:54;;;;;;;85.07;44.33;;;14.70;1.00;;;;;;5052311;28;20121;-58
2022/11/02 06:57:20;;;;;;;82.10;42.67;;;14.80;1.00;;;;;;5047188;28;20498;-59
2022/11/02 06:59:46;;;;;;;81.70;42.72;;;14.70;1.00;;;;;;5049643;28;20375;-59
2022/11/02 07:02:11;;;;;;;76.28;38.47;;;14.80;1.00;;;;;;5047752;28;20024;-59
2022/11/02 07:04:37;;;;;;;73.95;36.47;;;14.80;1.00;;;;;;5045604;28;20755;-59
2022/11/02 07:07:02;;;;;;;69.22;35.72;;;14.60;1.00;;;;;;5047896;28;20078;-59
2022/11/02 07:09:28;;;;;;;64.63;35.58;;;14.60;1.00;;;;;;5046311;28;20041;-58
2022/11/02 07:11:54;;;;;;;70.72;37.92;;;14.60;1.00;;;;;;5038887;28;20467;-58
2022/11/02 07:14:20;;;;;;;71.80;35.75;;;14.60;1.00;;;;;;5047915;28;20043;-58
2022/11/02 07:16:45;;;;;;;68.28;35.53;;;14.60;1.00;;;;;;5044141;28;20426;-58
2022/11/02 07:19:11;;;;;;;67.45;34.70;;;14.80;1.00;;;;;;5045095;28;20013;-59
2022/11/02 07:21:36;;;;;;;60.40;32.72;;;14.70;1.00;;;;;;5048674;28;20115;-56
2022/11/02 07:24:02;;;;;;;57.45;30.52;;;14.80;1.00;;;;;;5047716;28;20021;-59
2022/11/02 07:26:28;;;;;;;51.22;29.15;;;14.80;1.00;;;;;;5043326;28;20418;-59
2022/11/02 07:28:54;;;;;;;53.25;29.83;;;14.70;1.00;;;;;;5044915;28;20056;-59
2022/11/02 07:31:19;;;;;;;53.00;30.40;;;14.80;1.00;;;;;;5044942;28;20098;-58
2022/11/02 07:33:45;;;;;;;50.22;28.88;;;14.70;1.00;;;;;;5045325;28;20061;-59
2022/11/02 07:36:11;;;;;;;53.40;29.90;;;14.90;1.00;;;;;;5046461;28;20040;-59
2022/11/02 07:38:37;;;;;;;56.15;31.38;;;14.90;1.00;;;;;;5032735;28;20025;-59
2022/11/02 07:41:05;;;;;;;54.25;30.52;;;14.60;1.00;;;;;;5045274;28;20452;-59
2022/11/02 07:43:31;;;;;;;56.58;28.55;;;14.80;1.00;;;;;;5044902;28;20024;-59
2022/11/02 07:45:57;;;;;;;51.88;27.75;;;14.80;1.00;;;;;;5044681;28;20025;-59
2022/11/02 07:48:22;;;;;;;51.90;29.38;;;14.90;1.00;;;;;;5048624;28;20053;-60
2022/11/02 07:50:48;;;;;;;49.08;28.23;;;14.90;1.00;;;;;;5048353;28;20033;-60
2022/11/02 07:53:17;;;;;;;49.22;27.08;;;14.90;1.00;;;;;;5041446;28;20032;-59
2022/11/02 07:55:44;;;;;;;49.60;28.83;;;14.90;1.00;;;;;;5041154;28;20474;-60
2022/11/02 07:58:12;;;;;;;47.60;27.55;;;14.90;1.00;;;;;;5043870;28;20108;-59
2022/11/02 08:00:39;;;;;;;48.17;27.13;;;14.80;1.00;;;;;;5041167;28;20033;-59
2022/11/02 08:03:07;;;;;;;52.28;28.52;;;14.90;1.00;;;;;;5044391;28;20439;-59
2022/11/02 08:05:34;;;;;;;50.30;28.75;;;14.90;1.00;;;;;;5041965;28;20452;-60
2022/11/02 08:08:03;;;;;;;46.88;27.25;;;15.00;1.00;;;;;;5042459;28;20075;-60
2022/11/02 08:10:30;;;;;;;47.72;27.67;;;14.90;1.00;;;;;;5040144;28;20447;-60
2022/11/02 08:12:56;;;;;;;50.60;28.17;;;15.00;1.00;;;;;;5049217;28;20024;-59
2022/11/02 08:15:22;;;;;;;53.78;30.08;;;14.90;1.00;;;;;;5049542;28;20032;-60
2022/11/02 08:17:58;;;;;;;46.53;27.13;;;15.00;1.00;;;;;;5039624;28;20136;-60
2022/11/02 08:20:23;;;;;;;54.38;29.95;;;15.00;1.00;;;;;;5045351;28;20475;-60
2022/11/02 08:22:49;;;;;;;55.50;28.42;;;15.10;1.00;;;;;;5048813;28;20032;-60
2022/11/02 08:25:15;;;;;;;47.85;28.08;;;15.10;1.00;;;;;;5046668;28;20028;-60
2022/11/02 08:27:41;;;;;;;48.63;27.50;;;15.00;1.00;;;;;;5047664;28;20124;-59
2022/11/02 08:30:07;;;;;;;52.95;27.13;;;15.00;1.00;;;;;;5048892;28;20063;-60
2022/11/02 08:32:33;;;;;;;54.75;27.67;;;15.00;1.00;;;;;;5063685;28;20091;-59
2022/11/02 08:34:58;;;;;;;48.45;26.85;;;15.20;1.00;;;;;;5050128;28;20032;-60
2022/11/02 08:37:24;;;;;;;45.20;28.05;;;15.20;1.00;;;;;;5045422;28;20017;-60
2022/11/02 08:39:50;;;;;;;50.47;27.15;;;15.20;1.00;;;;;;5047355;28;20025;-60
2022/11/02 08:42:15;;;;;;;41.92;24.45;;;15.20;1.00;;;;;;5046377;28;20029;-60
2022/11/02 08:44:41;;;;;;;42.75;25.83;;;15.20;1.00;;;;;;5043715;28;20107;-60
2022/11/02 08:47:06;;;;;;;41.55;25.02;;;15.30;1.00;;;;;;5048114;28;20039;-60
2022/11/02 08:49:32;;;;;;;41.78;23.75;;;15.30;1.00;;;;;;5047083;28;20052;-60
2022/11/02 08:51:58;;;;;;;51.03;27.30;;;15.40;1.00;;;;;;5046048;28;20499;-60
2022/11/02 08:54:23;;;;;;;41.42;26.38;;;15.20;1.00;;;;;;5046584;28;20025;-60
2022/11/02 08:56:49;;;;;;;45.65;26.85;;;15.10;1.00;;;;;;5052435;28;20033;-60
2022/11/02 08:59:14;;;;;;;45.65;25.58;;;15.30;1.00;;;;;;5051817;28;20033;-60
2022/11/02 09:01:40;;;;;;;42.95;25.23;;;15.30;1.00;;;;;;5043911;28;20028;-60
2022/11/02 09:04:05;;;;;;;44.40;26.00;;;15.30;1.00;;;;;;5044779;28;20036;-59
2022/11/02 09:06:32;;;;;;;42.72;25.02;;;15.40;1.00;;;;;;5042344;28;20025;-58
2022/11/02 09:08:57;;;;;;;40.95;25.00;;;15.40;1.00;;;;;;5052983;28;20503;-58
2022/11/02 09:11:24;;;;;;;45.70;28.10;;;15.60;1.00;;;;;;5045957;28;20048;-59
2022/11/02 09:13:49;;;;;;;40.90;27.52;;;15.80;1.00;;;;;;5042421;28;20025;-59
2022/11/02 09:16:15;;;;;;;36.22;24.13;;;15.90;1.00;;;;;;5043642;28;20025;-59
2022/11/02 09:18:41;;;;;;;41.28;23.27;;;16.00;1.00;;;;;;5043693;28;20050;-59
2022/11/02 09:21:06;;;;;;;36.28;23.35;;;15.80;1.00;;;;;;5047557;28;20124;-59
2022/11/02 09:23:32;;;;;;;37.45;23.10;;;15.50;1.00;;;;;;5052214;28;20043;-59
2022/11/02 09:25:59;;;;;;;29.75;21.63;;;15.70;1.00;;;;;;5048149;28;20021;-59
2022/11/02 09:28:25;;;;;;;38.28;22.23;;;15.70;1.00;;;;;;5044728;28;20029;-60
2022/11/02 09:30:50;;;;;;;31.42;24.05;;;15.80;1.00;;;;;;5049083;28;20045;-60
2022/11/02 09:33:16;;;;;;;35.70;23.25;;;15.80;1.00;;;;;;5040258;28;20082;-59
2022/11/02 09:35:44;;;;;;;35.28;22.75;;;15.90;1.00;;;;;;5045632;28;20060;-59
2022/11/02 09:38:10;;;;;;;36.30;22.45;;;16.00;1.00;;;;;;5044414;28;20029;-60
2022/11/02 09:40:43;;;;;;;33.80;22.27;;;16.00;1.00;;;;;;5049046;28;20029;-59
2022/11/02 09:43:24;;;;;;;35.08;21.92;;;16.00;1.00;;;;;;5046276;28;20028;-60
2022/11/02 09:45:58;;;;;;;36.35;22.13;;;16.10;1.00;;;;;;5049093;28;20025;-59
2022/11/02 09:48:46;;;;;;;35.05;22.85;;;15.90;1.00;;;;;;5046683;28;20029;-59
2022/11/02 09:51:21;;;;;;;34.95;22.50;;;15.70;1.00;;;;;;5046774;28;20029;-60
2022/11/02 09:53:57;;;;;;;32.65;23.05;;;15.60;1.00;;;;;;5047453;28;20025;-59
2022/11/02 09:56:23;;;;;;;36.33;21.60;;;15.60;1.00;;;;;;5044785;28;20031;-59
2022/11/02 09:59:01;;;;;;;34.92;23.23;;;15.70;1.00;;;;;;5045385;28;20033;-60
2022/11/02 10:01:36;;;;;;;35.13;22.67;;;15.70;1.00;;;;;;5045951;28;20040;-60
2022/11/02 10:04:34;;;;;;;35.83;21.88;;;15.70;1.00;;;;;;5048111;28;20437;-60
2022/11/02 10:07:15;;;;;;;32.20;21.42;;;15.60;1.00;;;;;;5038877;28;20048;-60
2022/11/02 10:10:26;;;;;;;34.13;21.58;;;15.50;1.00;;;;;;5043343;28;20041;-60
2022/11/02 10:13:13;;;;;;;34.28;22.13;;;15.50;1.00;;;;;;5042963;28;20029;-60
2022/11/02 10:15:46;;;;;;;32.40;20.45;;;15.70;1.00;;;;;;5045078;28;20024;-60
2022/11/02 10:18:18;;;;;;;36.45;20.73;;;15.80;1.00;;;;;;5048297;28;20048;-59
2022/11/02 10:20:46;;;;;;;32.92;20.92;;;15.90;1.00;;;;;;5047467;28;20534;-59
2022/11/02 10:23:40;;;;;;;34.78;22.38;;;16.00;1.00;;;;;;5046297;28;20051;-59
2022/11/02 10:26:08;;;;;;;29.58;19.02;;;16.30;1.00;;;;;;5028760;28;20491;-60
2022/11/02 10:28:38;;;;;;;26.83;18.38;;;16.40;1.00;;;;;;5043965;28;20036;-60
2022/11/02 10:31:31;;;;;;;28.52;18.88;;;16.50;1.00;;;;;;5041989;28;20048;-60
2022/11/02 10:34:19;;;;;;;28.20;17.83;;;16.70;1.00;;;;;;5043555;28;20482;-60
2022/11/02 10:36:48;;;;;;;31.85;18.48;;;16.90;1.00;;;;;;5046058;28;20491;-59
2022/11/02 10:39:31;;;;;;;29.10;20.75;;;17.10;1.00;;;;;;5047722;28;20025;-60
2022/11/02 10:42:18;;;;;;;26.92;18.73;;;17.10;1.00;;;;;;5059697;28;20045;-60
2022/11/02 10:45:00;;;;;;;32.42;19.73;;;17.20;1.00;;;;;;5042364;28;20029;-60
2022/11/02 10:47:53;;;;;;;32.78;20.80;;;17.20;1.00;;;;;;5046115;28;20044;-59
2022/11/02 10:50:30;;;;;;;32.25;22.42;;;17.20;1.00;;;;;;5040862;28;20078;-59
2022/11/02 10:53:01;;;;;;;36.47;22.77;;;17.20;1.00;;;;;;5041236;28;20022;-59
2022/11/02 10:55:42;;;;;;;33.88;21.55;;;17.20;1.00;;;;;;5044041;28;20462;-60
2022/11/02 10:58:14;;;;;;;32.60;21.02;;;17.30;1.00;;;;;;5046683;28;20029;-61
2022/11/02 11:00:41;;;;;;;34.85;22.90;;;17.40;1.00;;;;;;5043936;28;20028;-53
2022/11/02 11:03:10;;;;;;;35.00;22.15;;;17.50;1.00;;;;;;5048385;28;20390;-58
2022/11/02 11:05:58;;;;;;;35.80;24.08;;;17.60;1.00;;;;;;5043643;28;20032;-52
2022/11/02 11:08:29;;;;;;;35.55;24.65;;;17.80;1.00;;;;;;5049852;28;20059;-55
2022/11/02 11:11:20;;;;;;;35.88;24.23;;;17.80;1.00;;;;;;5044755;28;20087;-56
2022/11/02 11:13:54;;;;;;;43.05;26.23;;;17.90;1.00;;;;;;5048743;28;20083;-56
2022/11/02 11:16:34;;;;;;;38.00;25.52;;;18.00;1.00;;;;;;5048148;28;20017;-55
2022/11/02 11:19:00;;;;;;;45.25;26.70;;;18.10;1.00;;;;;;5051658;28;20036;-51
2022/11/02 11:21:39;;;;;;;49.45;27.27;;;18.10;1.00;;;;;;5049033;28;20404;-51
2022/11/02 11:24:24;;;;;;;50.00;28.70;;;18.00;1.00;;;;;;5045841;28;20039;-55
2022/11/02 11:27:03;;;;;;;47.85;30.10;;;18.10;1.00;;;;;;5047289;28;20560;-55
2022/11/02 11:29:33;;;;;;;47.83;29.60;;;18.00;1.00;;;;;;5046996;28;20032;-55
2022/11/02 11:32:01;;;;;;;52.88;28.85;;;18.00;1.00;;;;;;5052664;28;20398;-54
2022/11/02 11:34:32;;;;;;;48.78;28.83;;;18.00;1.00;;;;;;5047263;28;20021;-54
2022/11/02 11:37:13;;;;;;;53.97;31.17;;;17.90;1.00;;;;;;5047102;28;20021;-51
2022/11/02 11:39:43;;;;;;;48.53;29.75;;;17.90;1.00;;;;;;5047990;28;20085;-57
2022/11/02 11:42:18;;;;;;;49.55;29.10;;;18.00;1.00;;;;;;5047831;28;20398;-52
2022/11/02 11:44:55;;;;;;;54.35;31.23;;;18.20;1.00;;;;;;5049871;28;20025;-56
2022/11/02 11:47:31;;;;;;;51.55;31.63;;;18.30;1.00;;;;;;5051028;28;20029;-57
2022/11/02 11:50:01;;;;;;;57.15;32.85;;;18.30;1.00;;;;;;5048405;28;20124;-56
2022/11/02 11:52:29;;;;;;;52.65;29.33;;;18.40;1.00;;;;;;5048570;28;20063;-53
2022/11/02 11:54:58;;;;;;;54.65;30.70;;;18.40;1.00;;;;;;5052846;28;20514;-54
2022/11/02 11:57:34;;;;;;;51.05;31.92;;;18.40;1.00;;;;;;5047663;28;20175;-55
2022/11/02 12:00:03;;;;;;;53.53;30.83;;;18.40;1.00;;;;;;5052561;28;20158;-55
2022/11/02 12:02:34;;;;;;;52.15;31.10;;;18.30;1.00;;;;;;5049771;28;20071;-59
2022/11/02 12:05:09;;;;;;;50.05;29.15;;;18.30;1.00;;;;;;5054956;28;20025;-51
2022/11/02 12:07:41;;;;;;;52.22;30.65;;;18.30;1.00;;;;;;5051948;28;20025;-53
2022/11/02 12:10:12;;;;;;;47.97;27.85;;;18.30;1.00;;;;;;5052563;28;20131;-52
2022/11/02 12:13:13;;;;;;;52.22;28.95;;;18.30;1.00;;;;;;5054319;28;20064;-50
2022/11/02 12:16:11;;;;;;;44.20;27.52;;;18.30;1.00;;;;;;5045741;28;20490;-55
2022/11/02 12:19:04;;;;;;;39.85;27.48;;;18.30;1.00;;;;;;5066353;28;20057;-54
2022/11/02 12:21:51;;;;;;;53.20;29.85;;;18.30;1.00;;;;;;5049799;28;20029;-51
2022/11/02 12:24:37;;;;;;;45.45;28.50;;;18.40;1.00;;;;;;5049115;28;20044;-51
2022/11/02 12:27:21;;;;;;;45.70;29.55;;;18.50;1.00;;;;;;5050839;28;20029;-54
2022/11/02 12:29:57;;;;;;;55.45;33.10;;;18.50;1.00;;;;;;5053569;28;20041;-52
2022/11/02 12:32:40;;;;;;;50.47;32.63;;;18.40;1.00;;;;;;5051047;28;20029;-55
2022/11/02 12:35:30;;;;;;;50.22;31.45;;;18.50;1.00;;;;;;5051995;28;20086;-50
2022/11/02 12:38:10;;;;;;;49.78;31.48;;;18.50;1.00;;;;;;5050586;28;20527;-54
2022/11/02 12:41:06;;;;;;;55.60;34.83;;;18.60;1.00;;;;;;5052028;28;20041;-50
2022/11/02 12:43:39;;;;;;;;;;;18.40;1.00;;;;;;5053176;28;20025;-52
2022/11/02 12:46:32;;;;;;;48.85;30.83;;;18.60;1.00;;;;;;5051281;28;19970;-54
2022/11/02 12:49:01;;;;;;;54.25;32.90;;;18.70;1.00;;;;;;5052023;28;20478;-53
2022/11/02 12:51:35;;;;;;;50.60;31.42;;;18.70;1.00;;;;;;5050020;28;20032;-55
2022/11/02 12:54:09;;;;;;;48.90;31.55;;;18.60;1.00;;;;;;5067663;28;20112;-56
2022/11/02 12:56:46;;;;;;;51.63;31.60;;;18.60;1.00;;;;;;5049817;28;20390;-54
2022/11/02 12:59:18;;;;;;;50.35;31.95;;;18.60;1.00;;;;;;5053950;28;20021;-57
2022/11/02 13:01:46;;;;;;;47.38;30.88;;;18.70;1.00;;;;;;5050957;28;20025;-50
2022/11/02 13:04:15;;;;;;;55.22;31.02;;;18.80;1.00;;;;;;5050680;28;20509;-57
2022/11/02 13:06:45;;;;;;;48.05;30.95;;;18.50;1.00;;;;;;5047169;28;20029;-56
2022/11/02 13:09:31;;;;;;;49.97;31.85;;;18.60;1.00;;;;;;5052426;28;20057;-53
2022/11/02 13:12:05;;;;;;;46.58;30.30;;;18.60;1.00;;;;;;5051221;28;20120;-56
2022/11/02 13:14:41;;;;;;;51.92;31.13;;;18.70;1.00;;;;;;5051796;28;20025;-54